PST,Max TemperatureF,Mean TemperatureF,Min TemperatureF,Max Dew PointF,MeanDew PointF,Min DewpointF,Max Humidity, Mean Humidity, Min Humidity, Max Sea Level PressureIn, Mean Sea Level PressureIn, Min Sea Level PressureIn, Max VisibilityMiles, Mean VisibilityMiles, Min VisibilityMiles, Max Wind SpeedMPH, Mean Wind SpeedMPH, Max Gust SpeedMPH,PrecipitationIn, CloudCover, Events, WindDirDegrees
2012-1-1,51,42,32,36,34,31,100,76,52,30.24,30.18,30.06,10,7,2,8,1,30,0.00,1,Fog,333
2012-1-2,54,43,32,48,41,31,96,91,86,30.28,30.13,30.00,10,8,2,23,8,32,0.10,5,Fog-Rain,176
2012-1-3,57,49,40,47,43,39,93,78,62,30.35,30.28,30.21,10,9,1,14,5,16,0.00,1,,152
2012-1-4,60,49,37,52,44,36,93,70,46,30.31,30.23,30.16,10,8,2,20,9,30,0.35,4,Rain,188
2012-1-5,52,42,31,44,36,28,92,77,61,30.44,30.40,30.33,10,8,0,15,5,22,0.04,3,Fog-Rain,204
2012-1-6,41,36,30,37,34,28,100,93,85,30.38,30.34,30.31,10,4,0,15,5,,0.05,8,Fog-Rain,147
2012-1-7,49,42,34,41,38,32,93,82,71,30.47,30.42,30.36,10,7,0,14,3,17,0.00,6,Fog,157
2012-1-8,39,35,31,37,34,30,100,93,85,30.43,30.36,30.31,5,1,0,6,1,8,0.00,6,Fog,172
2012-1-9,42,38,34,40,36,33,100,93,85,30.35,30.30,30.22,10,4,0,12,2,39,0.21,8,Fog-Rain,324
2012-1-10,47,40,32,39,34,28,100,77,53,30.48,30.41,30.33,10,6,0,17,5,21,0.03,4,Fog-Rain,351
2012-1-11,49,38,27,28,21,15,92,62,31,30.41,30.33,30.27,10,10,8,18,6,25,0.00,0,,333
2012-1-12,47,38,29,24,19,15,72,53,34,30.33,30.30,30.25,10,10,10,10,5,13,0.00,0,,333
2012-1-13,46,35,24,30,26,20,88,67,45,30.30,30.23,30.12,10,10,10,10,1,,0.00,0,,137
2012-1-14,46,39,32,41,35,31,92,79,65,30.12,30.09,30.05,10,8,2,24,10,29,0.20,6,Rain-Snow,186
2012-1-15,41,36,31,34,31,29,96,88,79,30.15,30.08,30.03,10,8,0,15,7,23,0.04,7,Fog-Rain-Snow,199
2012-1-16,38,34,30,34,31,28,92,87,82,30.25,30.19,30.12,10,9,2,21,11,28,0.13,8,Rain-Snow,174
2012-1-17,41,38,34,37,34,32,92,89,85,30.12,30.01,29.95,10,6,1,25,14,30,2.18,8,Rain-Snow,181
2012-1-18,52,47,41,49,44,37,93,88,82,29.95,29.76,29.63,9,5,2,31,17,43,2.47,8,Rain,177
2012-1-19,56,54,51,52,48,46,93,85,77,29.77,29.61,29.44,10,7,2,30,14,39,2.13,8,Rain,176
2012-1-20,54,52,50,49,48,46,89,83,77,29.76,29.52,29.18,10,9,6,30,14,37,0.65,7,Rain,168
2012-1-21,53,47,40,46,38,34,83,72,60,29.99,29.69,29.23,10,10,3,20,11,29,0.15,6,Rain,197
2012-1-22,51,45,38,44,38,32,92,75,58,29.91,29.72,29.56,10,9,4,33,10,47,0.19,6,Rain,173
2012-1-23,42,39,35,39,36,35,100,93,85,30.10,29.95,29.86,10,3,0,8,2,29,0.00,8,Fog,7
2012-1-24,56,48,40,52,44,37,96,84,72,30.13,30.00,29.87,10,6,2,23,12,31,0.77,8,Rain,170
2012-1-25,56,53,49,47,45,42,83,75,66,30.38,30.25,30.14,10,10,5,18,10,24,0.04,7,Rain,173
2012-1-26,52,42,31,49,39,30,89,73,56,30.61,30.33,30.09,10,10,10,23,7,31,0.08,5,Rain,249
2012-1-27,43,35,27,32,29,25,100,81,62,30.61,30.56,30.51,10,7,1,7,1,10,0.00,2,,315
2012-1-28,49,37,24,36,32,27,92,71,50,30.51,30.39,30.22,10,10,7,9,3,12,0.00,0,,145
2012-1-29,50,45,40,47,42,35,86,74,61,30.20,30.03,29.92,10,9,5,25,11,32,0.50,5,Rain,174
2012-1-30,59,50,42,43,41,39,89,68,47,30.15,30.09,30.04,10,10,3,16,7,23,0.97,5,,191
2012-1-31,53,49,44,44,43,40,93,78,63,30.11,30.03,29.90,10,10,10,9,4,41,0.01,7,Rain,209